Terminal Aerodrome Forecast
Issued by NWS Wichita, KS

Home | Current Version | Previous Version | Text Only | Print | Product List | Glossary Off
Versions: 1 2 3 4 5 6 7 8 9 10 11 12 13 14 15

000
FTUS43 KICT 271128
TAFICT
TAF
KICT 271128Z 2712/2812 VRB03KT P6SM SKC
     FM271600 15007KT P6SM SKC
     FM271900 18015G22KT P6SM SKC
     FM280000 16010KT P6SM SKC=

USA.gov is the U.S. government's official web portal to all federal, state and local government web resources and services.